Time;durP1;ratioP1;P1;durP2;ratioP2;P2;SDS_P1;SDS_P2;PMS_P1;PMS_P2;Temp;Humidity;BMP_temperature;BMP_pressure;BME280_temperature;BME280_humidity;BME280_pressure;Samples;Min_cycle;Max_cycle;Signal;HPM_P1;HPM_P2
2022/03/24 00:00:39;;;;;;;5.53;4.77;;;4.60;99.90;;;;;;6286775;28;20280;-79
2022/03/24 00:03:46;;;;;;;6.70;5.03;;;4.60;99.90;;;;;;6321037;28;20251;-80
2022/03/24 00:06:53;;;;;;;8.70;4.60;;;4.60;99.90;;;;;;6304750;28;20454;-80
2022/03/24 00:09:58;;;;;;;5.27;4.80;;;4.60;99.90;;;;;;6325840;28;20279;-79
2022/03/24 00:13:03;;;;;;;5.80;4.83;;;4.60;99.90;;;;;;6327470;28;20304;-80
2022/03/24 00:16:12;;;;;;;5.53;4.87;;;4.50;99.90;;;;;;6344584;28;20352;-79
2022/03/24 00:19:19;;;;;;;5.37;4.90;;;4.40;99.90;;;;;;6341584;28;20311;-80
2022/03/24 00:22:26;;;;;;;5.80;5.00;;;4.50;99.90;;;;;;6323495;28;20295;-79
2022/03/24 00:25:31;;;;;;;5.63;5.10;;;4.50;99.90;;;;;;6323328;28;20294;-79
2022/03/24 00:28:37;;;;;;;6.77;4.97;;;4.50;99.90;;;;;;6340770;28;20315;-79
2022/03/24 00:31:46;;;;;;;7.00;4.90;;;4.40;99.90;;;;;;6323131;28;20274;-79
2022/03/24 00:34:51;;;;;;;5.30;4.70;;;4.40;99.90;;;;;;6340591;28;20295;-79
2022/03/24 00:37:58;;;;;;;5.13;4.77;;;4.40;99.90;;;;;;6322218;28;20296;-79
2022/03/24 00:41:04;;;;;;;5.53;4.70;;;4.40;99.90;;;;;;6339361;28;20272;-79
2022/03/24 00:44:12;;;;;;;8.87;5.17;;;4.40;99.90;;;;;;6306875;28;20345;-79
2022/03/24 00:47:17;;;;;;;5.97;4.63;;;4.30;99.90;;;;;;6339949;28;20306;-79
2022/03/24 00:50:23;;;;;;;5.23;4.73;;;4.30;99.90;;;;;;6340176;28;20262;-79
2022/03/24 00:53:31;;;;;;;6.03;5.43;;;4.30;99.90;;;;;;6339587;28;20304;-79
2022/03/24 00:56:36;;;;;;;5.47;5.00;;;4.30;99.90;;;;;;6339314;28;20271;-79
2022/03/24 00:59:42;;;;;;;5.47;4.40;;;4.30;99.90;;;;;;6339247;28;20290;-79
2022/03/24 01:02:51;;;;;;;7.00;4.87;;;4.20;99.90;;;;;;6321877;28;20304;-79
2022/03/24 01:05:58;;;;;;;5.00;4.67;;;4.30;99.90;;;;;;6338292;28;20602;-79
2022/03/24 01:09:06;;;;;;;5.63;5.03;;;4.20;99.90;;;;;;6339718;28;20582;-79
2022/03/24 01:12:13;;;;;;;5.63;5.27;;;4.20;99.90;;;;;;6339427;28;20271;-79
2022/03/24 01:15:23;;;;;;;5.90;5.30;;;4.20;99.90;;;;;;6338563;28;20274;-79
2022/03/24 01:18:29;;;;;;;5.80;5.10;;;4.10;99.90;;;;;;6321872;28;20595;-79
2022/03/24 01:21:36;;;;;;;5.57;5.07;;;4.10;99.90;;;;;;6338542;28;20293;-79
2022/03/24 01:24:45;;;;;;;5.60;5.10;;;4.10;99.90;;;;;;6321485;28;20290;-79
2022/03/24 01:27:52;;;;;;;6.80;4.90;;;4.10;99.90;;;;;;6339568;28;20291;-79
2022/03/24 01:30:57;;;;;;;5.20;4.87;;;4.10;99.90;;;;;;6340236;28;20267;-79
2022/03/24 01:34:02;;;;;;;6.83;5.37;;;4.20;99.90;;;;;;6339359;28;20290;-79
2022/03/24 01:37:08;;;;;;;5.87;5.37;;;4.00;99.90;;;;;;6305124;28;20271;-78
2022/03/24 01:40:17;;;;;;;5.67;5.10;;;4.10;99.90;;;;;;6321845;28;20273;-79
2022/03/24 01:43:24;;;;;;;4.80;4.60;;;4.10;99.90;;;;;;6327883;28;20298;-79
2022/03/24 01:46:30;;;;;;;5.70;5.27;;;4.10;99.90;;;;;;6344773;28;20290;-79
2022/03/24 01:49:38;;;;;;;5.27;4.90;;;4.10;99.90;;;;;;6326456;28;20290;-79
2022/03/24 01:52:44;;;;;;;6.70;5.23;;;4.20;99.90;;;;;;6343446;28;20286;-79
2022/03/24 01:55:54;;;;;;;5.97;4.97;;;4.10;99.90;;;;;;6345289;28;20275;-79
2022/03/24 01:59:00;;;;;;;5.57;5.20;;;4.10;99.90;;;;;;6343126;28;20289;-79
2022/03/24 02:02:06;;;;;;;6.70;5.13;;;4.00;99.90;;;;;;6344760;28;20270;-79
2022/03/24 02:05:13;;;;;;;5.83;5.23;;;4.10;99.90;;;;;;6327731;28;20267;-79
2022/03/24 02:08:22;;;;;;;5.53;5.00;;;4.10;99.90;;;;;;6327354;28;20302;-79
2022/03/24 02:11:30;;;;;;;5.77;5.23;;;4.10;99.90;;;;;;6310792;28;20274;-79
2022/03/24 02:14:38;;;;;;;7.47;4.93;;;4.10;99.90;;;;;;6343438;28;20297;-79
2022/03/24 02:17:44;;;;;;;6.60;5.27;;;4.10;99.90;;;;;;6326864;28;20275;-79
2022/03/24 02:20:51;;;;;;;12.73;5.43;;;4.10;99.90;;;;;;6326114;28;20293;-79
2022/03/24 02:23:59;;;;;;;7.57;5.40;;;4.00;99.90;;;;;;6344752;28;20285;-79
2022/03/24 02:27:05;;;;;;;5.90;5.30;;;4.00;99.90;;;;;;6325876;28;20290;-79
2022/03/24 02:30:12;;;;;;;5.73;5.10;;;3.90;99.90;;;;;;6344371;28;20266;-78
2022/03/24 02:33:22;;;;;;;7.43;5.87;;;3.80;99.90;;;;;;6344204;28;20577;-79
2022/03/24 02:36:27;;;;;;;6.10;5.43;;;3.80;99.90;;;;;;6344089;28;20271;-79
2022/03/24 02:39:34;;;;;;;6.60;5.50;;;3.90;99.90;;;;;;6326439;28;20298;-80
2022/03/24 02:42:39;;;;;;;13.70;5.97;;;3.90;99.90;;;;;;6343869;28;20292;-79
2022/03/24 02:45:46;;;;;;;6.77;5.43;;;3.90;99.90;;;;;;6344076;28;20273;-79
2022/03/24 02:48:51;;;;;;;8.23;5.57;;;3.80;99.90;;;;;;6343627;28;20495;-79
2022/03/24 02:51:59;;;;;;;8.30;5.07;;;3.80;99.90;;;;;;6343670;28;20268;-79
2022/03/24 02:55:09;;;;;;;6.23;5.63;;;3.80;99.90;;;;;;6343062;28;20269;-79
2022/03/24 02:58:14;;;;;;;6.10;5.57;;;3.80;99.90;;;;;;6343525;28;20300;-79
2022/03/24 03:01:21;;;;;;;7.37;5.63;;;3.80;99.90;;;;;;6342283;28;20276;-79
2022/03/24 03:04:27;;;;;;;7.47;5.50;;;3.80;99.90;;;;;;6343079;28;20312;-79
2022/03/24 03:07:33;;;;;;;8.03;6.10;;;3.80;99.90;;;;;;6327045;28;20302;-79
2022/03/24 03:10:40;;;;;;;6.73;5.27;;;3.80;99.90;;;;;;6344984;28;20264;-79
2022/03/24 03:13:45;;;;;;;7.33;5.03;;;3.80;99.90;;;;;;6344881;28;20302;-79
2022/03/24 03:16:56;;;;;;;12.97;5.60;;;3.80;99.90;;;;;;6326298;28;20274;-79
2022/03/24 03:20:02;;;;;;;5.97;5.47;;;3.70;99.90;;;;;;6340738;28;20297;-79
2022/03/24 03:23:07;;;;;;;6.43;5.47;;;3.70;99.90;;;;;;6343019;28;20315;-79
2022/03/24 03:26:17;;;;;;;5.80;5.20;;;3.70;99.90;;;;;;6343834;28;20261;-79
2022/03/24 03:29:23;;;;;;;7.60;5.80;;;3.60;99.90;;;;;;6325432;28;20305;-79
2022/03/24 03:32:31;;;;;;;5.73;5.30;;;3.60;99.90;;;;;;6342772;28;20290;-79
2022/03/24 03:35:38;;;;;;;6.57;5.43;;;3.40;99.90;;;;;;6343971;28;20264;-79
2022/03/24 03:38:44;;;;;;;6.40;5.57;;;3.40;99.90;;;;;;6342807;28;20305;-79
2022/03/24 03:41:51;;;;;;;6.57;5.83;;;3.40;99.90;;;;;;6343389;28;20270;-79
2022/03/24 03:44:57;;;;;;;9.07;5.53;;;3.40;99.90;;;;;;6325476;28;20291;-79
2022/03/24 03:48:03;;;;;;;5.83;5.33;;;3.40;99.90;;;;;;6325827;28;20295;-79
2022/03/24 03:51:09;;;;;;;6.93;5.67;;;3.50;99.90;;;;;;6343304;28;20280;-79
2022/03/24 03:54:15;;;;;;;7.40;5.37;;;3.50;99.90;;;;;;6342838;28;20481;-79
2022/03/24 03:57:21;;;;;;;6.17;5.57;;;3.50;99.90;;;;;;6342440;28;20381;-79
2022/03/24 04:03:51;;;;;;;5.83;5.33;;;3.50;99.90;;;;;;6341771;28;20298;-79
2022/03/24 04:06:57;;;;;;;6.90;5.27;;;3.50;99.90;;;;;;6343894;28;20262;-79
2022/03/24 04:10:03;;;;;;;7.27;5.73;;;3.50;99.90;;;;;;6344467;28;20321;-79
2022/03/24 04:13:11;;;;;;;7.80;5.30;;;3.50;99.90;;;;;;6326300;28;20292;-79
2022/03/24 04:16:17;;;;;;;6.77;5.63;;;3.50;99.90;;;;;;6343464;28;20272;-79
2022/03/24 04:19:24;;;;;;;10.07;5.57;;;3.50;99.90;;;;;;6340133;28;20299;-79
2022/03/24 04:22:30;;;;;;;9.07;5.83;;;3.50;99.90;;;;;;6341718;28;20297;-79
2022/03/24 04:25:37;;;;;;;7.80;5.87;;;3.50;99.90;;;;;;6342487;28;20269;-79
2022/03/24 04:28:44;;;;;;;6.03;5.23;;;3.50;99.90;;;;;;6341926;28;20566;-79
2022/03/24 04:31:50;;;;;;;7.40;5.70;;;3.50;99.90;;;;;;6342391;28;20271;-79
2022/03/24 04:34:55;;;;;;;6.60;5.30;;;3.50;99.90;;;;;;6341982;28;20298;-79
2022/03/24 04:38:02;;;;;;;6.77;5.57;;;3.40;99.90;;;;;;6340967;28;20485;-79
2022/03/24 04:41:08;;;;;;;10.17;5.73;;;3.40;99.90;;;;;;6342264;28;20541;-79
2022/03/24 04:44:16;;;;;;;5.37;4.87;;;3.40;99.90;;;;;;6324431;28;20580;-79
2022/03/24 04:47:21;;;;;;;7.73;5.60;;;3.40;99.90;;;;;;6341424;28;20314;-79
2022/03/24 04:50:27;;;;;;;8.77;5.60;;;3.40;99.90;;;;;;6341750;28;20297;-79
2022/03/24 04:53:33;;;;;;;7.20;5.50;;;3.40;99.90;;;;;;6343654;28;20404;-79
2022/03/24 04:56:39;;;;;;;12.83;5.73;;;3.40;99.90;;;;;;6341816;28;20233;-79
2022/03/24 04:59:46;;;;;;;8.63;5.63;;;3.40;99.90;;;;;;6341292;28;20305;-77
2022/03/24 05:02:52;;;;;;;11.60;5.87;;;3.40;99.90;;;;;;6323219;28;20295;-79
2022/03/24 05:05:59;;;;;;;6.97;5.47;;;3.30;99.90;;;;;;6341274;28;20272;-79
2022/03/24 05:09:04;;;;;;;7.63;5.57;;;3.40;99.90;;;;;;6323353;28;20297;-79
2022/03/24 05:12:12;;;;;;;8.90;5.50;;;3.40;99.90;;;;;;6340895;28;20446;-79
2022/03/24 05:15:20;;;;;;;14.23;5.67;;;3.40;99.90;;;;;;6323558;28;20266;-79
2022/03/24 05:18:25;;;;;;;12.57;5.93;;;3.40;99.90;;;;;;6340811;28;20293;-80
2022/03/24 05:21:31;;;;;;;8.70;5.77;;;3.40;99.90;;;;;;6323724;28;20289;-79
2022/03/24 05:24:38;;;;;;;5.60;5.10;;;3.40;99.90;;;;;;6340919;28;20304;-79
2022/03/24 05:27:43;;;;;;;7.80;5.60;;;3.40;99.90;;;;;;6322645;28;20301;-79
2022/03/24 05:30:50;;;;;;;11.07;5.50;;;3.40;99.90;;;;;;6340582;28;20288;-80
2022/03/24 05:33:56;;;;;;;11.33;5.17;;;3.40;99.90;;;;;;6323241;28;20298;-79
2022/03/24 05:37:01;;;;;;;9.63;5.23;;;3.40;99.90;;;;;;6324330;28;20271;-81
2022/03/24 05:40:09;;;;;;;9.50;5.87;;;3.40;99.90;;;;;;6325550;28;20269;-80
2022/03/24 05:43:16;;;;;;;7.67;5.50;;;3.50;99.90;;;;;;6340697;28;20823;-79
2022/03/24 05:46:22;;;;;;;8.80;5.77;;;3.50;99.90;;;;;;6340883;28;20277;-78
2022/03/24 05:49:28;;;;;;;12.90;5.90;;;3.50;99.90;;;;;;6322435;28;20290;-78
2022/03/24 05:52:52;;;;;;;12.00;5.90;;;3.50;99.90;;;;;;6340408;28;20293;-79
2022/03/24 05:55:57;;;;;;;12.23;5.77;;;3.60;99.90;;;;;;6341200;28;20280;-79
2022/03/24 05:59:03;;;;;;;10.63;6.33;;;3.60;99.90;;;;;;6322222;28;20298;-78
2022/03/24 06:02:09;;;;;;;8.67;5.83;;;3.70;99.90;;;;;;6322578;28;20270;-79
2022/03/24 06:05:15;;;;;;;11.60;5.70;;;3.70;99.90;;;;;;6341573;28;20267;-78
2022/03/24 06:08:21;;;;;;;12.57;5.90;;;3.70;99.90;;;;;;6341741;28;20297;-79
2022/03/24 06:11:26;;;;;;;21.37;5.80;;;3.80;99.90;;;;;;6341424;28;20297;-78
2022/03/24 06:14:32;;;;;;;13.50;5.63;;;3.90;99.90;;;;;;6341222;28;20305;-78
2022/03/24 06:17:39;;;;;;;14.67;5.80;;;3.90;99.90;;;;;;6340411;28;20302;-79
2022/03/24 06:20:45;;;;;;;15.70;6.17;;;3.90;99.90;;;;;;6307678;28;20299;-80
2022/03/24 06:23:51;;;;;;;8.80;5.47;;;4.00;99.90;;;;;;6322406;28;20286;-79
2022/03/24 06:26:57;;;;;;;10.00;5.17;;;4.00;99.90;;;;;;6341720;28;20292;-80
2022/03/24 06:30:05;;;;;;;6.30;5.40;;;4.10;99.90;;;;;;6346522;28;20286;-81
2022/03/24 06:33:23;;;;;;;8.27;5.90;;;4.20;99.90;;;;;;6342169;28;20300;-79
2022/03/24 06:36:28;;;;;;;7.97;5.50;;;4.20;99.90;;;;;;6344882;28;20278;-80
2022/03/24 06:39:34;;;;;;;10.30;5.67;;;4.20;99.90;;;;;;6328801;28;20300;-78
2022/03/24 06:42:39;;;;;;;9.83;6.07;;;4.30;99.90;;;;;;6345154;28;20295;-79
2022/03/24 06:45:45;;;;;;;10.80;5.40;;;4.30;99.90;;;;;;6327867;28;20278;-81
2022/03/24 06:48:54;;;;;;;15.10;5.80;;;4.30;99.90;;;;;;6326626;28;20583;-81
2022/03/24 06:52:02;;;;;;;11.03;5.90;;;4.40;99.90;;;;;;6296992;28;20281;-80
2022/03/24 06:55:12;;;;;;;21.03;5.57;;;4.50;99.90;;;;;;6346137;28;20269;-80
2022/03/24 06:58:18;;;;;;;12.67;5.33;;;4.60;99.90;;;;;;6345983;28;20294;-79
2022/03/24 07:01:23;;;;;;;12.97;5.57;;;4.60;99.90;;;;;;6348529;28;20275;-81
2022/03/24 07:04:30;;;;;;;17.30;6.53;;;4.70;99.90;;;;;;6347572;28;20290;-81
2022/03/24 07:07:37;;;;;;;11.30;5.60;;;4.70;99.90;;;;;;6332107;28;20312;-81
2022/03/24 07:10:42;;;;;;;15.83;5.67;;;4.80;99.90;;;;;;6349119;28;20281;-79
2022/03/24 07:13:48;;;;;;;8.57;5.73;;;4.80;99.90;;;;;;6348661;28;20295;-79
2022/03/24 07:16:54;;;;;;;7.63;5.30;;;4.80;99.90;;;;;;6349669;28;20243;-79
2022/03/24 07:20:01;;;;;;;12.13;6.23;;;4.90;99.90;;;;;;6347164;28;20308;-78
2022/03/24 07:23:08;;;;;;;8.83;5.67;;;4.90;99.90;;;;;;6329999;28;20299;-79
2022/03/24 07:26:14;;;;;;;8.17;5.87;;;4.90;99.90;;;;;;6347137;28;20453;-79
2022/03/24 07:29:20;;;;;;;9.33;5.87;;;4.90;99.90;;;;;;6343958;28;20314;-80
2022/03/24 07:32:26;;;;;;;6.37;5.77;;;5.00;99.90;;;;;;6342726;28;20297;-79
2022/03/24 07:35:35;;;;;;;6.27;5.67;;;5.00;99.90;;;;;;6345102;28;20308;-79
2022/03/24 07:38:41;;;;;;;7.43;5.40;;;5.00;99.90;;;;;;6343439;28;20295;-81
2022/03/24 07:41:46;;;;;;;8.43;5.93;;;5.00;99.90;;;;;;6345506;28;20275;-79
2022/03/24 07:44:52;;;;;;;6.90;5.73;;;5.00;99.90;;;;;;6344832;28;20295;-79
2022/03/24 07:48:08;;;;;;;7.00;5.70;;;5.00;99.90;;;;;;6343930;28;20295;-79
2022/03/24 07:51:16;;;;;;;7.73;5.97;;;5.10;99.90;;;;;;6343721;28;20292;-79
2022/03/24 07:54:45;;;;;;;7.83;5.73;;;5.10;99.90;;;;;;6342860;28;20295;-81
2022/03/24 07:57:51;;;;;;;15.03;5.80;;;5.20;99.90;;;;;;6324488;28;20291;-80
2022/03/24 08:00:59;;;;;;;10.00;6.07;;;5.20;99.90;;;;;;6343695;28;20273;-80
2022/03/24 08:04:06;;;;;;;11.40;5.23;;;5.30;99.90;;;;;;6343660;28;20288;-80
2022/03/24 08:07:13;;;;;;;7.37;5.60;;;5.20;99.90;;;;;;6343188;28;20457;-80
2022/03/24 08:10:19;;;;;;;6.43;5.70;;;5.30;99.90;;;;;;6343109;28;20272;-80
2022/03/24 08:13:25;;;;;;;10.07;5.27;;;5.30;99.90;;;;;;6344088;28;20301;-80
2022/03/24 08:16:30;;;;;;;7.70;5.50;;;5.40;99.90;;;;;;6344142;28;20555;-81
2022/03/24 08:19:37;;;;;;;5.93;5.27;;;5.40;99.90;;;;;;6343602;28;20295;-80
2022/03/24 08:22:44;;;;;;;11.17;5.90;;;5.40;99.90;;;;;;6343626;28;20299;-80
2022/03/24 08:25:50;;;;;;;9.90;5.50;;;5.50;99.90;;;;;;6327698;28;20271;-80
2022/03/24 08:28:57;;;;;;;6.63;6.10;;;5.50;99.90;;;;;;6343913;28;20291;-80
2022/03/24 08:32:03;;;;;;;6.03;5.43;;;5.50;99.90;;;;;;6344431;28;20284;-80
2022/03/24 08:35:11;;;;;;;6.00;5.30;;;5.60;99.90;;;;;;6345022;28;20273;-80
2022/03/24 08:38:18;;;;;;;7.00;5.33;;;5.60;99.90;;;;;;6344002;28;20297;-80
2022/03/24 08:41:23;;;;;;;7.67;5.50;;;5.70;99.90;;;;;;6343269;28;20310;-81
2022/03/24 08:44:28;;;;;;;5.77;5.30;;;5.70;99.90;;;;;;6324494;28;20323;-80
2022/03/24 08:47:34;;;;;;;7.20;5.67;;;5.70;99.90;;;;;;6326949;28;20300;-81
2022/03/24 08:50:40;;;;;;;8.50;5.50;;;5.70;99.90;;;;;;6327883;28;20271;-81
2022/03/24 08:53:47;;;;;;;22.93;6.37;;;5.70;99.90;;;;;;6345213;28;20264;-81
2022/03/24 08:56:53;;;;;;;10.63;5.23;;;5.80;99.90;;;;;;6326658;28;20272;-81
2022/03/24 09:00:02;;;;;;;11.03;5.70;;;5.80;99.90;;;;;;6343242;28;20273;-80
2022/03/24 09:03:16;;;;;;;9.73;6.33;;;5.80;99.90;;;;;;6343546;28;20368;-80
2022/03/24 09:06:23;;;;;;;10.03;5.87;;;5.90;99.90;;;;;;6344679;28;20264;-80
2022/03/24 09:09:29;;;;;;;7.53;5.47;;;5.90;99.90;;;;;;6344616;28;20289;-80
2022/03/24 09:12:37;;;;;;;6.17;5.30;;;5.90;99.90;;;;;;6343933;28;20297;-81
2022/03/24 09:15:44;;;;;;;5.93;5.33;;;6.00;99.90;;;;;;6345376;28;20269;-80
2022/03/24 09:18:50;;;;;;;7.40;5.00;;;6.10;99.90;;;;;;6344418;28;20438;-80
2022/03/24 09:21:55;;;;;;;9.00;5.47;;;6.10;99.90;;;;;;6343719;28;20286;-81
2022/03/24 09:25:02;;;;;;;12.37;5.67;;;6.20;99.90;;;;;;6344229;28;20265;-80
2022/03/24 09:28:10;;;;;;;9.47;5.73;;;6.20;99.90;;;;;;6343743;28;20484;-81
2022/03/24 09:31:15;;;;;;;5.87;5.30;;;6.20;99.90;;;;;;6345270;28;20274;-81
2022/03/24 09:34:21;;;;;;;12.87;5.90;;;6.20;99.90;;;;;;6344223;28;20297;-80
2022/03/24 09:37:27;;;;;;;10.30;5.57;;;6.30;99.90;;;;;;6342655;28;20293;-80
2022/03/24 09:40:34;;;;;;;6.07;5.47;;;6.40;99.90;;;;;;6326338;28;20451;-80
2022/03/24 09:43:41;;;;;;;6.90;5.40;;;6.40;99.90;;;;;;6326735;28;20301;-81
2022/03/24 09:46:47;;;;;;;9.03;4.97;;;6.50;99.90;;;;;;6343510;28;20274;-80
2022/03/24 09:49:54;;;;;;;9.00;5.53;;;6.50;99.90;;;;;;6325881;28;20292;-81
2022/03/24 09:53:00;;;;;;;15.00;6.47;;;6.60;99.80;;;;;;6342778;28;20296;-81
2022/03/24 09:56:08;;;;;;;6.97;5.47;;;6.60;99.90;;;;;;6326046;28;20265;-81
2022/03/24 09:59:14;;;;;;;10.97;5.40;;;6.60;99.80;;;;;;6343564;28;20289;-80
2022/03/24 10:02:20;;;;;;;7.70;5.17;;;6.70;99.90;;;;;;6344679;28;20289;-80
2022/03/24 10:05:26;;;;;;;8.00;5.27;;;6.70;99.80;;;;;;6348799;28;20226;-80
2022/03/24 10:08:32;;;;;;;19.73;5.80;;;6.90;99.50;;;;;;6347789;28;20592;-80
2022/03/24 10:11:39;;;;;;;9.93;5.03;;;6.90;99.40;;;;;;6347777;28;20265;-80
2022/03/24 10:14:44;;;;;;;9.23;4.87;;;6.90;99.40;;;;;;6346834;28;20308;-81
2022/03/24 10:17:55;;;;;;;6.40;5.20;;;7.00;99.20;;;;;;6347947;28;20328;-81
2022/03/24 10:21:03;;;;;;;10.13;5.20;;;7.20;99.00;;;;;;6348492;28;20294;-81
2022/03/24 10:24:13;;;;;;;12.33;5.70;;;7.30;99.00;;;;;;6347973;28;20294;-80
2022/03/24 10:27:24;;;;;;;9.43;5.00;;;7.30;98.90;;;;;;6348714;28;20286;-81
2022/03/24 10:30:52;;;;;;;9.47;5.60;;;7.30;98.80;;;;;;6350392;28;20273;-81
2022/03/24 10:33:58;;;;;;;7.73;5.20;;;7.40;99.10;;;;;;6348301;28;20302;-80
2022/03/24 10:37:05;;;;;;;6.67;4.87;;;7.60;98.20;;;;;;6331158;28;20269;-81
2022/03/24 10:40:13;;;;;;;12.27;5.10;;;7.90;97.90;;;;;;6348853;28;20226;-81
2022/03/24 10:43:24;;;;;;;12.13;5.33;;;7.90;97.80;;;;;;6348600;28;20305;-80
2022/03/24 10:46:31;;;;;;;6.70;5.20;;;7.90;97.80;;;;;;6347003;28;20269;-81
2022/03/24 10:49:36;;;;;;;6.70;5.17;;;8.00;97.60;;;;;;6348346;28;20294;-81
2022/03/24 10:52:42;;;;;;;6.95;4.88;;;8.20;97.20;;;;;;6347213;28;20297;-81
2022/03/24 10:56:04;;;;;;;9.98;5.68;;;8.10;97.40;;;;;;6346872;28;20274;-81
2022/03/24 10:59:11;;;;;;;17.42;5.22;;;8.30;97.20;;;;;;6346192;28;20290;-81
2022/03/24 11:02:17;;;;;;;5.40;4.82;;;8.30;97.20;;;;;;6346465;28;20286;-81
2022/03/24 11:05:22;;;;;;;10.35;4.90;;;8.40;97.00;;;;;;6346670;28;20266;-81
2022/03/24 11:08:34;;;;;;;8.70;5.15;;;8.60;96.60;;;;;;6346613;28;20298;-81
2022/03/24 11:11:41;;;;;;;6.95;4.57;;;8.60;96.90;;;;;;6346975;28;20230;-81
2022/03/24 11:14:50;;;;;;;5.90;4.63;;;8.60;96.90;;;;;;6346226;28;20293;-81
2022/03/24 11:17:55;;;;;;;6.90;4.68;;;8.70;96.60;;;;;;6346342;28;20354;-81
2022/03/24 11:21:05;;;;;;;9.57;4.50;;;8.80;96.20;;;;;;6346838;28;20297;-80
2022/03/24 11:24:13;;;;;;;6.78;4.78;;;8.90;96.00;;;;;;6347147;28;20253;-80
2022/03/24 11:27:19;;;;;;;7.20;4.82;;;8.90;96.00;;;;;;6345871;28;20286;-81
2022/03/24 11:30:27;;;;;;;6.57;4.82;;;9.10;95.60;;;;;;6346552;28;20270;-80
2022/03/24 11:33:43;;;;;;;6.40;4.50;;;9.10;95.70;;;;;;6345939;28;20294;-80
2022/03/24 11:36:52;;;;;;;6.22;5.05;;;9.20;95.80;;;;;;6346272;28;20400;-80
2022/03/24 11:40:10;;;;;;;6.65;4.47;;;9.30;95.40;;;;;;6345250;28;20266;-80
2022/03/24 11:43:19;;;;;;;15.75;5.50;;;9.40;95.50;;;;;;6344975;28;20299;-80
2022/03/24 11:46:38;;;;;;;9.43;4.97;;;9.50;95.30;;;;;;6346020;28;20267;-80
2022/03/24 11:49:44;;;;;;;8.07;4.57;;;9.50;95.20;;;;;;6345034;28;20294;-80
2022/03/24 11:53:10;;;;;;;8.75;4.30;;;9.50;95.50;;;;;;6344940;28;20289;-80
2022/03/24 11:56:19;;;;;;;8.95;5.07;;;9.70;95.40;;;;;;6346104;28;20321;-80
2022/03/24 11:59:24;;;;;;;13.68;5.03;;;9.70;95.10;;;;;;6344219;28;20588;-82
2022/03/24 12:02:35;;;;;;;6.43;4.45;;;9.80;95.10;;;;;;6345238;28;20288;-81
2022/03/24 12:05:48;;;;;;;8.90;4.72;;;9.90;95.10;;;;;;6346079;28;20274;-81
2022/03/24 12:09:03;;;;;;;8.50;4.78;;;9.90;95.00;;;;;;6345430;28;20301;-81
2022/03/24 12:12:13;;;;;;;14.77;5.05;;;10.00;95.00;;;;;;6345303;28;20270;-81
2022/03/24 12:15:24;;;;;;;7.45;4.82;;;10.10;94.40;;;;;;6327695;28;20282;-79
2022/03/24 12:18:41;;;;;;;9.38;4.88;;;10.10;94.70;;;;;;6344765;28;20250;-82
2022/03/24 12:21:49;;;;;;;12.13;4.90;;;10.10;94.60;;;;;;6345945;28;20258;-81
2022/03/24 12:25:29;;;;;;;7.60;4.85;;;10.10;94.40;;;;;;6343692;28;20302;-81
2022/03/24 12:28:37;;;;;;;11.00;4.43;;;10.20;94.10;;;;;;6345137;28;20298;-81
2022/03/24 12:32:00;;;;;;;6.57;4.93;;;10.30;93.90;;;;;;6345456;28;20233;-81
2022/03/24 12:35:09;;;;;;;9.90;4.43;;;10.40;93.90;;;;;;6343752;28;20286;-81
2022/03/24 12:38:45;;;;;;;6.20;4.78;;;10.40;94.30;;;;;;6345278;28;20301;-81
2022/03/24 12:42:11;;;;;;;8.05;4.38;;;10.40;94.00;;;;;;6344836;28;20274;-81
2022/03/24 12:45:37;;;;;;;6.47;4.22;;;10.50;94.20;;;;;;6344103;28;20274;-81
2022/03/24 12:49:27;;;;;;;9.63;4.60;;;10.50;93.90;;;;;;6343195;28;20293;-81
2022/03/24 12:53:02;;;;;;;7.15;4.75;;;10.60;93.60;;;;;;6343244;28;20455;-81
2022/03/24 12:56:22;;;;;;;9.48;4.32;;;10.60;93.50;;;;;;6299522;28;20293;-81
2022/03/24 12:59:27;;;;;;;8.15;4.72;;;10.80;93.00;;;;;;6344933;28;20293;-81
2022/03/24 13:02:34;;;;;;;10.95;4.80;;;10.90;92.90;;;;;;6345030;28;20290;-81
2022/03/24 13:05:44;;;;;;;4.53;4.13;;;10.80;93.00;;;;;;6327173;28;20270;-81
2022/03/24 13:09:18;;;;;;;13.20;4.15;;;10.80;93.10;;;;;;6344565;28;20298;-82
2022/03/24 13:12:28;;;;;;;22.58;4.93;;;10.90;92.80;;;;;;6343164;28;20290;-81
2022/03/24 13:15:37;;;;;;;6.70;4.28;;;10.90;92.40;;;;;;6342641;28;20481;-81
2022/03/24 13:18:55;;;;;;;18.88;4.93;;;11.00;92.50;;;;;;6342557;28;20528;-81
2022/03/24 13:22:17;;;;;;;9.40;4.70;;;11.10;91.70;;;;;;6343010;28;20262;-81
2022/03/24 13:25:26;;;;;;;6.30;4.47;;;11.20;91.60;;;;;;6343714;28;20483;-81
2022/03/24 13:28:34;;;;;;;7.30;4.43;;;11.20;91.90;;;;;;6344075;28;20294;-81
2022/03/24 13:31:39;;;;;;;4.72;4.38;;;11.10;92.10;;;;;;6344788;28;20262;-81
2022/03/24 13:34:50;;;;;;;7.65;4.50;;;11.20;92.00;;;;;;6344083;28;20298;-81
2022/03/24 13:37:58;;;;;;;11.52;5.47;;;11.10;92.30;;;;;;6348393;28;20302;-81
2022/03/24 13:41:07;;;;;;;4.88;4.47;;;11.10;92.80;;;;;;6332149;28;20456;-81
2022/03/24 13:44:13;;;;;;;10.95;4.95;;;11.20;92.90;;;;;;6349195;28;20290;-81
2022/03/24 13:47:23;;;;;;;15.52;4.53;;;11.20;92.80;;;;;;6346635;28;20312;-82
2022/03/24 13:50:31;;;;;;;9.80;4.60;;;11.40;92.50;;;;;;6349371;28;20222;-81
2022/03/24 13:53:40;;;;;;;13.18;5.07;;;11.40;92.20;;;;;;6349342;28;20298;-82
2022/03/24 13:56:52;;;;;;;14.18;4.75;;;11.40;92.90;;;;;;6329979;28;20285;-82
2022/03/24 13:59:58;;;;;;;9.48;4.88;;;11.50;92.40;;;;;;6348058;28;20274;-81
2022/03/24 14:03:08;;;;;;;5.93;5.00;;;11.80;91.90;;;;;;6349154;28;20285;-81
2022/03/24 14:06:15;;;;;;;9.00;4.43;;;12.10;90.70;;;;;;6349595;28;20274;-82
2022/03/24 14:09:23;;;;;;;9.70;4.68;;;11.90;91.20;;;;;;6330566;28;20290;-82
2022/03/24 14:12:30;;;;;;;11.60;4.70;;;12.00;91.40;;;;;;6323151;28;20290;-81
2022/03/24 14:15:35;;;;;;;10.77;4.30;;;12.20;90.20;;;;;;6324291;28;20425;-82
2022/03/24 14:18:41;;;;;;;5.28;4.40;;;12.00;90.80;;;;;;6323114;28;20294;-82
2022/03/24 14:21:50;;;;;;;10.85;4.50;;;12.00;90.80;;;;;;6340265;28;20263;-81
2022/03/24 14:24:56;;;;;;;6.10;4.50;;;11.90;91.30;;;;;;6324056;28;20242;-81
2022/03/24 14:28:02;;;;;;;15.30;4.88;;;11.80;92.00;;;;;;6323982;28;20306;-83
2022/03/24 14:31:29;;;;;;;8.48;4.60;;;11.80;91.80;;;;;;6339827;28;20267;-81
2022/03/24 14:34:37;;;;;;;7.45;4.30;;;11.70;92.40;;;;;;6323100;28;20341;-82
2022/03/24 14:37:46;;;;;;;5.03;4.60;;;11.60;92.60;;;;;;6323130;28;20294;-80
2022/03/24 14:40:52;;;;;;;7.45;4.57;;;11.60;92.70;;;;;;6324592;28;20267;-81
2022/03/24 14:43:58;;;;;;;16.45;4.57;;;11.50;93.10;;;;;;6323763;28;20294;-81
2022/03/24 14:47:04;;;;;;;13.65;4.68;;;11.60;92.80;;;;;;6323286;28;20506;-81
2022/03/24 14:50:11;;;;;;;7.13;4.60;;;11.60;93.00;;;;;;6306031;28;20574;-81
2022/03/24 14:53:16;;;;;;;7.22;4.47;;;11.50;93.10;;;;;;6323365;28;20291;-81
2022/03/24 14:56:25;;;;;;;6.28;5.18;;;11.50;93.00;;;;;;6306632;28;20283;-81
2022/03/24 14:59:31;;;;;;;10.30;5.07;;;11.50;93.20;;;;;;6322400;28;20298;-81
2022/03/24 15:02:38;;;;;;;16.38;5.40;;;11.50;93.50;;;;;;6322741;28;20460;-81
2022/03/24 15:05:45;;;;;;;11.63;4.57;;;11.40;93.60;;;;;;6305356;28;20270;-82
2022/03/24 15:08:51;;;;;;;10.50;4.53;;;11.40;93.80;;;;;;6322256;28;20290;-81
2022/03/24 15:11:56;;;;;;;10.88;4.40;;;11.50;93.80;;;;;;6344209;28;20266;-82
2022/03/24 15:18:29;;;;;;;17.38;5.30;;;11.40;94.10;;;;;;6333223;28;20291;-83
2022/03/24 15:21:35;;;;;;;8.70;4.90;;;11.30;94.30;;;;;;6348261;28;20293;-81
2022/03/24 15:24:40;;;;;;;17.50;6.35;;;11.40;94.10;;;;;;6347702;28;20242;-82
2022/03/24 15:27:46;;;;;;;10.63;4.75;;;11.50;93.90;;;;;;6347124;28;20253;-81
2022/03/24 15:30:53;;;;;;;15.48;4.63;;;11.50;93.90;;;;;;6347298;28;20275;-81
2022/03/24 15:33:59;;;;;;;11.98;5.10;;;11.60;93.70;;;;;;6312594;28;20291;-81
2022/03/24 15:37:05;;;;;;;9.35;4.47;;;11.40;94.20;;;;;;6328444;28;20282;-80
2022/03/24 15:40:15;;;;;;;10.00;4.85;;;11.30;94.80;;;;;;6346440;28;20245;-81
2022/03/24 15:43:20;;;;;;;22.35;5.05;;;11.40;94.70;;;;;;6346404;28;20289;-80
2022/03/24 15:46:27;;;;;;;12.63;4.53;;;11.30;95.00;;;;;;6311567;28;20265;-80
2022/03/24 15:49:33;;;;;;;18.13;5.30;;;11.30;95.00;;;;;;6345734;28;20289;-80
2022/03/24 15:52:39;;;;;;;29.30;5.90;;;11.20;95.20;;;;;;6345762;28;20290;-80
2022/03/24 15:55:45;;;;;;;15.10;5.50;;;11.10;95.60;;;;;;6328581;28;20266;-80
2022/03/24 15:58:51;;;;;;;22.63;5.35;;;11.10;95.60;;;;;;6327144;28;20298;-80
2022/03/24 16:01:58;;;;;;;7.50;4.43;;;11.10;95.60;;;;;;6327079;28;20270;-80
2022/03/24 16:05:04;;;;;;;13.70;5.00;;;11.10;95.80;;;;;;6345493;28;20432;-80
2022/03/24 16:08:12;;;;;;;7.65;4.60;;;11.00;95.90;;;;;;6344005;28;20297;-80
2022/03/24 16:11:17;;;;;;;10.07;4.90;;;10.80;96.70;;;;;;6343957;28;20266;-79
2022/03/24 16:14:23;;;;;;;15.65;5.45;;;10.70;96.60;;;;;;6343225;28;20289;-80
2022/03/24 16:17:30;;;;;;;24.00;5.57;;;10.80;96.60;;;;;;6343911;28;20573;-80
2022/03/24 16:20:36;;;;;;;23.23;6.15;;;10.80;96.70;;;;;;6344416;28;20253;-80
2022/03/24 16:23:42;;;;;;;23.67;5.82;;;10.60;97.10;;;;;;6342295;28;20298;-80
2022/03/24 16:26:47;;;;;;;22.90;5.55;;;10.60;97.40;;;;;;6344645;28;20292;-82
2022/03/24 16:29:56;;;;;;;15.30;4.97;;;10.40;97.80;;;;;;6344165;28;20262;-79